NEODyS-2

Near Earth Objects - Dynamic Site
NEODyS ∴ Observatories ∴ Site 691 ∴ Obs & residuals
Contact »
691  ▹ 
OBSERVATIONS AND RESIDUALS

691-Steward Observatory, Kitt Peak-Spacewatch

Detections | Residuals | Detections & Residuals

[1-200] [201-400] [401-600] [601-800] [801-1000] [1001-1200] [1201-1400] [1401-1600] [1601-1800] [1801-2000] [2001-2200] [2201-2400] [2401-2600] [2601-2800] [2801-3000] [3001-3200] [3201-3400] [3401-3600] [3601-3800] [3801-4000] [4001-4200] [4201-4400] [4401-4600] [4601-4800] [4801-5000] [5001-5200] [5201-5400] [5401-5600] [5601-5800] [5801-6000] [6001-6200] [6201-6400] [6401-6600] [6601-6800] [6801-7000] [7001-7200] [7201-7400] [7401-7600] [7601-7800] [7801-8000] [8001-8200] [8201-8400] [8401-8600] [8601-8800] [8801-9000] [9001-9200] [9201-9400] [9401-9600] [9601-9800] [9801-10000] [10001-10200] [10201-10400] [10401-10600] [10601-10800] [10801-11000] [11001-11200] [11201-11400] [11401-11600] [11601-11800] [11801-12000] [12001-12200] [12201-12400] [12401-12600] [12601-12800] [12801-13000] [13001-13200] [13201-13400] [13401-13600] [13601-13800] [13801-14000] [14001-14200] [14201-14400] [14401-14600] [14601-14800] [14801-15000] [15001-15200] [15201-15400] [15401-15600] [15601-15800] [15801-16000] [16001-16200] [16201-16400] [16401-16600] [16601-16800] [16801-17000] [17001-17200] [17201-17400] [17401-17600] [17601-17800] [17801-18000] [18001-18200] [18201-18400] [18401-18600] [18601-18800] [18801-19000] [19001-19200] [19201-19400] [19401-19600] [19601-19800] [19801-20000] [20001-20200] [20201-20400] [20401-20600] [20601-20800] [20801-21000] [21001-21200] [21201-21400] [21401-21600] [21601-21800] [21801-22000] [22001-22200] [22201-22400] [22401-22600] [22601-22800] [22801-23000] [23001-23200] [23201-23400] [23401-23600] [23601-23800] [23801-24000] [24001-24200] [24201-24400] [24401-24600] [24601-24800] [24801-25000] [25001-25200] [25201-25400] [25401-25600] [25601-25800] [25801-26000] [26001-26200] [26201-26400] [26401-26600] [26601-26800] [26801-27000] [27001-27200] [27201-27400] [27401-27600] [27601-27800] [27801-28000] [28001-28200] [28201-28400] [28401-28600] [28601-28800] [28801-29000] [29001-29200] [29201-29400] [29401-29600] [29601-29800] [29801-30000] [30001-30200] [30201-30400] [30401-30600] [30601-30800] [30801-31000] [31001-31200] [31201-31400] [31401-31600] [31601-31800] [31801-32000] [32001-32200] [32201-32400] [32401-32600] [32601-32800] [32801-33000] [33001-33200] [33201-33400] [33401-33600] [33601-33800] [33801-34000] [34001-34200] [34201-34400] [34401-34600] [34601-34800] [34801-35000] [35001-35200] [35201-35400] [35401-35600] [35601-35800] [35801-36000] [36001-36200] [36201-36400] [36401-36600] [36601-36800] [36801-37000] [37001-37200] [37201-37400] [37401-37600] [37601-37800] [37801-38000] [38001-38200] [38201-38400] [38401-38600] [38601-38800] [38801-39000] [39001-39200] [39201-39400] [39401-39600] [39601-39800] [39801-40000] [40001-40200] [40201-40400] [40401-40600] [40601-40800] [40801-41000] [41001-41200] [41201-41400] [41401-41600] [41601-41800] [41801-42000] [42001-42200] [42201-42400] [42401-42600] [42601-42800] [42801-43000] [43001-43200] [43201-43400] [43401-43600] [43601-43800] [43801-44000] [44001-44200] [44201-44400] [44401-44600] [44601-44800] [44801-45000] [45001-45200] [45201-45400] [45401-45600] [45601-45800] [45801-46000] [46001-46200] [46201-46400] [46401-46600] [46601-46800] [46801-47000] [47001-47200] [47201-47400] [47401-47600] [47601-47800] [47801-48000] [48001-48200] [48201-48400] [48401-48600] [48601-48800] [48801-49000] [49001-49200] [49201-49400] [49401-49600] [49601-49800] [49801-50000] [50001-50200] [50201-50388]

Designation T Tech N Date Right Ascension Declination Apparent Magnitude Star Catalog Site code χ Used A Used M
yr-mo-day precision hr:min:sec precision rms F bias residual deg min sec precision rms F bias residual mag/col rms residual
2009HD82 O C K 2020-12-22.18542 1.000E-05 02:39:12.400 1.500E-01 0.500 F -0.407 0.259 -16° 54' 03.60" 1.000E-01 0.500 F 0.026 -0.167 19.5 R 0.70 -0.45 o 691 0.63 Yes Yes
2020PD1 O C H 2020-12-22.19256 1.000E-05 03:28:15.330 1.500E-01 0.500 F -0.337 -0.268 -17° 04' 48.20" 1.000E-01 0.500 F 0.225 -0.134 19.7 R 0.70 -0.39 o 691 0.60 Yes Yes
2009HD82 O C K 2020-12-22.19405 1.000E-05 02:39:15.650 1.500E-01 0.500 F -0.407 0.270 -16° 53' 17.50" 1.000E-01 0.500 F 0.026 -0.272 19.6 R 0.70 -0.35 o 691 0.78 Yes Yes
2020PD1 O C H 2020-12-22.20120 1.000E-05 03:28:15.990 1.500E-01 0.500 F -0.337 -0.247 -17° 04' 40.70" 1.000E-01 0.500 F 0.225 0.044 20.0 R 0.70 -0.09 o 691 0.50 Yes Yes
2020OC8 O C H 2020-12-22.20316 1.000E-05 03:52:10.210 1.500E-01 0.500 F -0.260 -0.008 -01° 00' 05.30" 1.000E-01 0.500 F 0.124 -0.125 19.4 R 0.70 0.10 o 691 0.25 Yes Yes
2020OC8 O C H 2020-12-22.20933 1.000E-05 03:52:11.170 1.500E-01 0.500 F -0.260 0.161 -00° 59' 55.60" 1.000E-01 0.500 F 0.124 0.497 19.2 R 0.70 -0.10 o 691 1.05 Yes Yes
2020OC8 O C H 2020-12-22.21548 1.000E-05 03:52:12.090 1.500E-01 0.500 F -0.260 -0.220 -00° 59' 46.80" 1.000E-01 0.500 F 0.124 0.248 19.4 R 0.70 0.10 o 691 0.67 Yes Yes
2014AC16 O C K 2020-12-22.22377 1.000E-05 04:34:42.860 1.500E-01 0.500 F -0.025 -0.308 -28° 40' 12.70" 1.000E-01 0.500 F 0.157 0.208 20.4 R 0.70 0.29 o 691 0.75 Yes Yes
2014AC16 O C K 2020-12-22.23194 1.000E-05 04:34:42.650 1.500E-01 0.500 F -0.025 -0.174 -28° 39' 46.60" 1.000E-01 0.500 F 0.157 -0.163 20.6 R 0.70 0.49 o 691 0.51 Yes Yes
2011GD60 O C H 2020-12-22.23565 1.000E-05 04:26:30.900 1.500E-01 0.500 F -0.051 -0.200 +03° 41' 45.20" 1.000E-01 0.500 F 0.301 0.140 19.9 R 0.70 0.55 o 691 0.49 Yes Yes
2014AC16 O C K 2020-12-22.24002 1.000E-05 04:34:42.430 1.500E-01 0.500 F -0.025 -0.201 -28° 39' 20.10" 1.000E-01 0.500 F 0.157 0.130 20.8 R 0.70 0.69 o 691 0.49 Yes Yes
2011GD60 O C H 2020-12-22.24373 1.000E-05 04:26:30.150 1.500E-01 0.500 F -0.051 0.209 +03° 42' 05.70" 1.000E-01 0.500 F 0.301 -0.369 19.7 R 0.70 0.35 o 691 0.85 Yes Yes
2011WL2 O C H 2020-12-22.24824 1.000E-05 05:38:27.620 1.500E-01 0.500 F -0.006 -0.679 -18° 45' 07.90" 1.000E-01 0.500 F -0.125 0.246 20.4 R 0.70 0.15 o 691 1.45 Yes Yes
2016EE156 O C H 2020-12-22.25015 1.000E-05 05:40:56.100 1.500E-01 0.500 F -0.140 0.487 -17° 00' 51.30" 1.000E-01 0.500 F -0.038 0.263 20.2 R 0.70 -0.10 o 691 1.11 Yes Yes
2011WL2 O C H 2020-12-22.25508 1.000E-05 05:38:26.550 1.500E-01 0.500 F -0.006 -0.228 -18° 45' 07.50" 1.000E-01 0.500 F -0.125 -0.129 20.5 R 0.70 0.25 o 691 0.53 Yes Yes
2016EE156 O C H 2020-12-22.25698 1.000E-05 05:40:55.230 1.500E-01 0.500 F -0.140 -0.248 -17° 00' 43.40" 1.000E-01 0.500 F -0.038 0.229 20.2 R 0.70 -0.10 o 691 0.68 Yes Yes
2011WL2 O C H 2020-12-22.26190 1.000E-05 05:38:25.460 1.500E-01 0.500 F -0.006 -0.101 -18° 45' 06.50" 1.000E-01 0.500 F -0.125 0.085 20.3 R 0.70 0.05 o 691 0.26 Yes Yes
2016EE156 O C H 2020-12-22.26380 1.000E-05 05:40:54.420 1.500E-01 0.500 F -0.140 -0.138 -17° 00' 35.70" 1.000E-01 0.500 F -0.038 0.003 20.0 R 0.70 -0.30 o 691 0.28 Yes Yes
2020TT7 O C H 2020-12-22.26866 1.000E-05 05:58:47.440 1.500E-01 0.500 F -0.114 -0.034 -12° 24' 27.30" 1.000E-01 0.500 F -0.034 0.061 19.4 R 0.70 -0.49 o 691 0.14 Yes Yes
2020XJ O C K 2020-12-22.27279 1.000E-05 05:02:04.260 1.500E-01 0.500 F -0.088 0.208 +06° 17' 55.80" 1.000E-01 0.500 F 0.104 -0.146 21.7 R 0.70 0.08 o 691 0.54 Yes Yes
2020TT7 O C H 2020-12-22.28544 1.000E-05 05:58:48.410 1.500E-01 0.500 F -0.114 0.007 -12° 24' 08.50" 1.000E-01 0.500 F -0.034 0.118 19.1 R 0.70 -0.79 o 691 0.24 Yes Yes
2020XJ O C K 2020-12-22.28957 1.000E-05 05:02:06.330 1.500E-01 0.500 F -0.088 -0.261 +06° 17' 09.30" 1.000E-01 0.500 F 0.104 0.202 o 691 0.70 Yes No
2020TT7 O C H 2020-12-22.30219 1.000E-05 05:58:49.380 1.500E-01 0.500 F -0.114 0.127 -12° 23' 49.90" 1.000E-01 0.500 F -0.034 -0.107 19.3 R 0.70 -0.59 o 691 0.33 Yes Yes
2020XJ O C K 2020-12-22.30632 1.000E-05 05:02:08.440 1.500E-01 0.500 F -0.088 -0.139 +06° 16' 22.30" 1.000E-01 0.500 F 0.104 -0.033 22.0 R 0.70 0.37 o 691 0.31 Yes Yes
2020YL3 O C K 2020-12-22.34464 1.000E-05 06:06:04.490 1.500E-01 0.500 F -0.138 -0.227 -06° 54' 57.00" 1.000E-01 0.500 F 0.014 -0.453 o 691 1.04 Yes No
2020YL3 O C K 2020-12-22.35493 1.000E-05 06:06:05.160 1.500E-01 0.500 F -0.138 -0.181 -06° 54' 48.20" 1.000E-01 0.500 F 0.014 0.084 21.8 R 0.70 0.59 o 691 0.41 Yes Yes
2020YL3 O C K 2020-12-22.36523 1.000E-05 06:06:05.850 1.500E-01 0.500 F -0.138 0.115 -06° 54' 39.50" 1.000E-01 0.500 F 0.014 0.489 21.2 R 0.70 -0.01 o 691 1.03 Yes Yes
Apophis O C H 2020-12-22.40495 1.000E-05 11:33:16.140 1.500E-01 0.500 F 0.090 -0.217 -11° 38' 37.40" 1.000E-01 0.500 F 0.139 0.053 18.1 R 0.70 -0.10 o 691 0.45 Yes Yes
Apophis O C H 2020-12-22.41309 1.000E-05 11:33:16.480 1.500E-01 0.500 F 0.090 -0.192 -11° 38' 45.20" 1.000E-01 0.500 F 0.139 -0.183 18.2 R 0.70 0.00 o 691 0.53 Yes Yes
Apophis O C H 2020-12-22.42123 1.000E-05 11:33:16.860 1.500E-01 0.500 F 0.090 0.476 -11° 38' 52.90" 1.000E-01 0.500 F 0.139 -0.329 17.9 R 0.70 -0.30 o 691 1.16 Yes Yes
2020XW4 O C K 2020-12-22.42390 1.000E-05 10:04:23.340 1.500E-01 0.500 F 0.206 0.998 +26° 10' 31.00" 1.000E-01 0.500 F 0.376 -0.864 o 691 2.66 Yes No
2017AF5 O C H 2020-12-22.42871 1.000E-05 11:21:33.910 1.500E-01 0.500 F 0.187 -0.148 +13° 42' 54.70" 1.000E-01 0.500 F 0.386 -0.040 20.4 R 0.70 0.54 o 691 0.31 Yes Yes
2017AF5 O C H 2020-12-22.43753 1.000E-05 11:21:32.770 1.500E-01 0.500 F 0.187 -0.096 +13° 43' 01.60" 1.000E-01 0.500 F 0.386 -0.045 o 691 0.21 Yes No
2020XW4 O C K 2020-12-22.44153 1.000E-05 10:04:24.360 1.500E-01 0.500 F 0.206 -0.030 +26° 09' 10.10" 1.000E-01 0.500 F 0.376 0.004 20.4 R 0.70 -0.14 o 691 0.06 Yes Yes
2017AF5 O C H 2020-12-22.44636 1.000E-05 11:21:31.630 1.500E-01 0.500 F 0.187 -0.009 +13° 43' 08.30" 1.000E-01 0.500 F 0.386 -0.255 20.4 R 0.70 0.54 o 691 0.51 Yes Yes
2020YA1 O C K 2020-12-22.45072 1.000E-05 10:07:20.070 1.500E-01 0.500 F 0.097 0.106 +28° 53' 56.70" 1.000E-01 0.500 F 0.301 0.101 20.7 R 0.70 0.23 o 691 0.30 Yes Yes
2020YA1 O C K 2020-12-22.45952 1.000E-05 10:07:22.600 1.500E-01 0.500 F 0.097 0.112 +28° 53' 27.20" 1.000E-01 0.500 F 0.301 0.221 20.2 R 0.70 -0.27 o 691 0.50 Yes Yes
2020YA1 O C K 2020-12-22.46850 1.000E-05 10:07:25.210 1.500E-01 0.500 F 0.097 0.561 +28° 52' 56.30" 1.000E-01 0.500 F 0.301 0.008 20.6 R 0.70 0.13 o 691 1.14 Yes Yes
2016PO39 O C K 2020-12-22.48263 1.000E-05 13:25:04.070 1.500E-01 0.500 F 0.159 -0.344 +15° 07' 40.60" 1.000E-01 0.500 F 0.174 0.617 o 691 1.50 Yes No
2016PO39 O C K 2020-12-22.49375 1.000E-05 13:25:06.260 1.500E-01 0.500 F 0.159 0.199 +15° 07' 01.90" 1.000E-01 0.500 F 0.174 -0.236 21.5 R 0.70 0.54 o 691 0.65 Yes Yes
2016PO39 O C K 2020-12-22.50486 1.000E-05 13:25:08.390 1.500E-01 0.500 F 0.159 -0.070 +15° 06' 24.50" 1.000E-01 0.500 F 0.174 0.196 21.9 R 0.70 0.94 o 691 0.44 Yes Yes
2020PD1 O C K 2020-12-23.11634 1.000E-05 03:29:31.090 1.500E-01 0.500 F -0.417 -0.048 -16° 51' 35.60" 1.000E-01 0.500 F 0.233 0.090 o 691 0.20 Yes No
2020PD1 O C K 2020-12-23.12707 1.000E-05 03:29:31.890 1.500E-01 0.500 F -0.417 -0.467 -16° 51' 26.90" 1.000E-01 0.500 F 0.233 -0.396 o 691 1.23 Yes No
2020PD1 O C K 2020-12-23.13770 1.000E-05 03:29:32.730 1.500E-01 0.500 F -0.417 -0.178 -16° 51' 17.70" 1.000E-01 0.500 F 0.233 -0.312 o 691 0.72 Yes No
2020ST1 O C H 2020-12-23.33125 1.000E-05 07:17:17.050 1.500E-01 0.500 F -0.081 0.012 -10° 51' 21.10" 1.000E-01 0.500 F -0.002 -0.042 19.4 R 0.70 -0.31 o 691 0.09 Yes Yes
2015LK21 O C H 2020-12-23.33350 1.000E-05 08:00:36.040 1.500E-01 0.500 F 0.155 -0.797 -18° 07' 30.90" 1.000E-01 0.500 F -0.080 0.496 o 691 1.93 Yes No
2020ST1 O C H 2020-12-23.33731 1.000E-05 07:17:17.100 1.500E-01 0.500 F -0.081 -0.141 -10° 51' 19.10" 1.000E-01 0.500 F -0.002 0.265 20.1 R 0.70 0.39 o 691 0.61 Yes Yes
2015LK21 O C H 2020-12-23.33956 1.000E-05 08:00:35.570 1.500E-01 0.500 F 0.155 -1.036 -18° 07' 28.50" 1.000E-01 0.500 F -0.080 0.450 o 691 2.33 Yes No
2020ST1 O C H 2020-12-23.34336 1.000E-05 07:17:17.150 1.500E-01 0.500 F -0.081 -0.285 -10° 51' 17.50" 1.000E-01 0.500 F -0.002 0.163 20.2 R 0.70 0.49 o 691 0.67 Yes Yes
2015LK21 O C H 2020-12-23.34561 1.000E-05 08:00:35.220 1.500E-01 0.500 F 0.155 0.429 -18° 07' 26.70" 1.000E-01 0.500 F -0.080 -0.196 o 691 0.97 Yes No
2020WJ4 O C H 2020-12-23.40213 1.000E-05 09:34:36.730 1.500E-01 0.500 F 0.247 0.076 +18° 50' 33.20" 1.000E-01 0.500 F 0.369 0.123 20.1 R 0.70 0.13 o 691 0.29 Yes Yes
2020WJ4 O C H 2020-12-23.40708 1.000E-05 09:34:37.450 1.500E-01 0.500 F 0.247 0.213 +18° 50' 38.40" 1.000E-01 0.500 F 0.369 -0.301 20.3 R 0.70 0.33 o 691 0.75 Yes Yes
2020WJ4 O C H 2020-12-23.41202 1.000E-05 09:34:38.150 1.500E-01 0.500 F 0.247 0.095 +18° 50' 44.10" 1.000E-01 0.500 F 0.369 -0.207 20.1 R 0.70 0.13 o 691 0.46 Yes Yes
2017AF5 O C H 2020-12-23.41691 1.000E-05 11:19:26.620 1.500E-01 0.500 F 0.187 -0.740 +13° 55' 49.80" 1.000E-01 0.500 F 0.386 0.478 20.8 R 0.70 0.94 o 691 1.77 Yes Yes
2017AF5 O C H 2020-12-23.42265 1.000E-05 11:19:25.890 1.500E-01 0.500 F 0.187 -0.243 +13° 55' 54.00" 1.000E-01 0.500 F 0.386 0.097 20.1 R 0.70 0.24 o 691 0.52 Yes Yes
2017AF5 O C H 2020-12-23.42831 1.000E-05 11:19:25.140 1.500E-01 0.500 F 0.187 -0.184 +13° 55' 58.50" 1.000E-01 0.500 F 0.386 0.081 20.0 R 0.70 0.14 o 691 0.40 Yes Yes
2020XN1 O C K 2020-12-24.12016 1.000E-05 04:48:03.520 1.500E-01 0.500 F -0.119 -0.030 +26° 21' 38.10" 1.000E-01 0.500 F 0.358 -0.274 19.1 R 0.70 0.48 o 691 0.56 Yes Yes
2020XN1 O C K 2020-12-24.12696 1.000E-05 04:48:02.020 1.500E-01 0.500 F -0.119 -0.369 +26° 22' 15.50" 1.000E-01 0.500 F 0.358 -0.081 18.9 R 0.70 0.27 o 691 0.76 Yes Yes
2020XN1 O C K 2020-12-24.13376 1.000E-05 04:48:00.560 1.500E-01 0.500 F -0.119 -0.142 +26° 22' 52.80" 1.000E-01 0.500 F 0.358 0.023 19.0 R 0.70 0.37 o 691 0.29 Yes Yes
2020TG4 O C H 2020-12-24.15453 1.000E-05 05:57:22.610 1.500E-01 0.500 F -0.111 -0.090 +14° 48' 22.00" 1.000E-01 0.500 F 0.173 -0.002 17.0 R 0.70 -0.29 o 691 0.18 Yes Yes
2020TG4 O C H 2020-12-24.16239 1.000E-05 05:57:23.510 1.500E-01 0.500 F -0.111 -0.233 +14° 48' 11.30" 1.000E-01 0.500 F 0.173 0.257 17.1 R 0.70 -0.19 o 691 0.70 Yes Yes
2020TG4 O C H 2020-12-24.17023 1.000E-05 05:57:24.410 1.500E-01 0.500 F -0.111 -0.280 +14° 47' 59.70" 1.000E-01 0.500 F 0.173 -0.399 16.8 R 0.70 -0.49 o 691 0.98 Yes Yes
2001YV3 O C H 2020-12-24.17868 1.000E-05 07:18:13.460 1.500E-01 0.500 F -0.206 0.353 +13° 18' 23.90" 1.000E-01 0.500 F 0.200 -0.274 o 691 0.90 Yes No
2001YV3 O C H 2020-12-24.18761 1.000E-05 07:18:08.850 1.500E-01 0.500 F -0.206 -0.194 +13° 19' 08.40" 1.000E-01 0.500 F 0.200 -0.041 o 691 0.40 Yes No
2001YV3 O C H 2020-12-24.19655 1.000E-05 07:18:04.220 1.500E-01 0.500 F -0.206 -0.891 +13° 19' 52.80" 1.000E-01 0.500 F 0.200 0.119 o 691 1.82 Yes No
2017BL31 O C K 2020-12-24.24695 1.000E-05 07:31:06.050 1.500E-01 0.500 F 0.044 -0.469 +18° 58' 47.30" 1.000E-01 0.500 F 0.222 0.141 20.2 R 0.70 0.32 o 691 0.98 Yes Yes
2017BL31 O C K 2020-12-24.25951 1.000E-05 07:31:04.520 1.500E-01 0.500 F 0.044 0.102 +18° 59' 00.50" 1.000E-01 0.500 F 0.222 -0.446 20.7 R 0.70 0.83 o 691 0.92 Yes Yes
2017BL31 O C K 2020-12-24.27206 1.000E-05 07:31:02.960 1.500E-01 0.500 F 0.044 0.284 +18° 59' 14.60" 1.000E-01 0.500 F 0.222 -0.113 19.9 R 0.70 0.03 o 691 0.61 Yes Yes
2020YN3 O C K 2020-12-24.33706 1.000E-05 09:19:34.340 1.500E-01 0.500 F 0.114 0.566 +24° 58' 39.30" 1.000E-01 0.500 F 0.448 -0.929 19.7 R 0.70 0.32 o 691 2.19 Yes Yes
2020YN3 O C K 2020-12-24.35003 1.000E-05 09:19:24.150 1.500E-01 0.500 F 0.114 -0.625 +24° 58' 47.00" 1.000E-01 0.500 F 0.448 -0.137 19.0 R 0.70 -0.38 o 691 1.29 Yes Yes
2017AF5 O C K 2020-12-24.35662 1.000E-05 11:17:22.390 1.500E-01 0.500 F 0.193 -1.182 +14° 08' 18.30" 1.000E-01 0.500 F 0.315 -0.273 20.3 R 0.70 0.44 o 691 2.43 Yes Yes
2020YN3 O C K 2020-12-24.36297 1.000E-05 09:19:14.050 1.500E-01 0.500 F 0.114 -0.657 +24° 58' 53.10" 1.000E-01 0.500 F 0.448 -0.686 19.0 R 0.70 -0.38 o 691 1.91 Yes Yes
2017AF5 O C K 2020-12-24.36956 1.000E-05 11:17:20.670 1.500E-01 0.500 F 0.193 -0.643 +14° 08' 29.40" 1.000E-01 0.500 F 0.315 0.291 19.7 R 0.70 -0.16 o 691 1.42 Yes Yes
2020PC5 O C 2020-12-26.18521 1.000E-05 02:15:50.480 1.500E-01 0.500 F -0.217 -0.072 -23° 23' 35.20" 1.000E-01 0.500 F 0.336 -0.221 19.9 V 0.70 0.27 o 691 0.47 Yes Yes
2020PC5 O C 2020-12-26.19196 1.000E-05 02:15:51.720 1.500E-01 0.500 F -0.217 0.064 -23° 23' 31.20" 1.000E-01 0.500 F 0.336 -0.035 19.9 V 0.70 0.27 o 691 0.15 Yes Yes
2020PC5 O C 2020-12-26.19871 1.000E-05 02:15:52.950 1.500E-01 0.500 F -0.217 0.055 -23° 23' 27.40" 1.000E-01 0.500 F 0.336 -0.061 19.4 V 0.70 -0.23 o 691 0.16 Yes Yes
2013YS2 O C H 2020-12-26.25621 1.000E-05 05:32:13.390 1.500E-01 0.500 F -0.239 -0.126 +12° 34' 11.00" 1.000E-01 0.500 F 0.175 0.155 18.4 R 0.70 0.25 o 691 0.40 Yes Yes
2013YS2 O C H 2020-12-26.26307 1.000E-05 05:32:15.000 1.500E-01 0.500 F -0.239 -0.075 +12° 33' 42.90" 1.000E-01 0.500 F 0.175 -0.031 18.5 R 0.70 0.35 o 691 0.16 Yes Yes
2013YS2 O C H 2020-12-26.26993 1.000E-05 05:32:16.610 1.500E-01 0.500 F -0.239 -0.013 +12° 33' 14.90" 1.000E-01 0.500 F 0.175 -0.058 18.6 R 0.70 0.45 o 691 0.12 Yes Yes
2002LG3 O C H 2020-12-26.31421 1.000E-05 08:23:35.320 1.500E-01 0.500 F -0.019 0.346 -00° 58' 12.30" 1.000E-01 0.500 F 0.145 -0.236 19.4 R 0.70 -0.03 o 691 0.85 Yes Yes
2002LG3 O C H 2020-12-26.32012 1.000E-05 08:23:33.870 1.500E-01 0.500 F -0.019 -0.120 -00° 58' 02.50" 1.000E-01 0.500 F 0.145 0.174 19.1 R 0.70 -0.33 o 691 0.43 Yes Yes
2002LG3 O C H 2020-12-26.32603 1.000E-05 08:23:32.460 1.500E-01 0.500 F -0.019 0.024 -00° 57' 53.10" 1.000E-01 0.500 F 0.145 0.185 18.9 R 0.70 -0.53 o 691 0.38 Yes Yes
2020WH2 O C K 2020-12-26.33644 1.000E-05 08:55:26.660 1.500E-01 0.500 F 0.060 -0.037 -03° 02' 17.30" 1.000E-01 0.500 F 0.143 -0.237 19.6 R 0.70 0.05 o 691 0.48 Yes Yes
2020WH2 O C K 2020-12-26.34405 1.000E-05 08:55:24.980 1.500E-01 0.500 F 0.060 -0.038 -03° 02' 48.10" 1.000E-01 0.500 F 0.143 -0.391 19.4 R 0.70 -0.15 o 691 0.79 Yes Yes
2020WH2 O C K 2020-12-26.35167 1.000E-05 08:55:23.290 1.500E-01 0.500 F 0.060 -0.137 -03° 03' 18.10" 1.000E-01 0.500 F 0.143 0.285 19.4 R 0.70 -0.15 o 691 0.64 Yes Yes
2020OK5 O C H 2020-12-26.38045 1.000E-05 08:07:47.640 1.500E-01 0.500 F -0.090 0.073 +29° 27' 33.30" 1.000E-01 0.500 F 0.259 -0.054 19.1 R 0.70 -0.11 o 691 0.18 Yes Yes
2020OK5 O C H 2020-12-26.39115 1.000E-05 08:07:44.840 1.500E-01 0.500 F -0.090 -0.211 +29° 27' 15.60" 1.000E-01 0.500 F 0.259 0.268 19.5 R 0.70 0.29 o 691 0.68 Yes Yes
2020OK5 O C H 2020-12-26.40340 1.000E-05 08:07:41.680 1.500E-01 0.500 F -0.090 -0.002 +29° 26' 54.20" 1.000E-01 0.500 F 0.259 0.011 19.5 R 0.70 0.29 o 691 0.02 Yes Yes
2014JH57 O C 2020-12-26.50642 1.000E-05 15:06:14.160 1.500E-01 0.500 F 0.238 -0.190 -01° 46' 20.30" 1.000E-01 0.500 F 0.145 -0.240 20.2 V 0.70 0.63 o 691 0.61 Yes Yes
2014JH57 O C 2020-12-26.51318 1.000E-05 15:06:14.720 1.500E-01 0.500 F 0.238 -0.191 -01° 46' 22.30" 1.000E-01 0.500 F 0.145 -0.013 20.1 V 0.70 0.53 o 691 0.38 Yes Yes
2014JH57 O C 2020-12-26.51993 1.000E-05 15:06:15.300 1.500E-01 0.500 F 0.238 0.128 -01° 46' 24.40" 1.000E-01 0.500 F 0.145 0.111 20.0 V 0.70 0.43 o 691 0.34 Yes Yes
2010OL100 O C K 2021-01-02.08026 1.000E-05 23:21:20.550 1.500E-01 0.500 F -0.245 0.045 -14° 31' 12.80" 1.000E-01 0.500 F 0.407 -0.424 o 691 0.87 Yes No
2010OL100 O C K 2021-01-02.08925 1.000E-05 23:21:24.570 1.500E-01 0.500 F -0.245 -0.322 -14° 31' 14.90" 1.000E-01 0.500 F 0.407 -0.472 o 691 1.16 Yes No
2010OL100 O C K 2021-01-02.09823 1.000E-05 23:21:28.680 1.500E-01 0.500 F -0.245 0.664 -14° 31' 16.80" 1.000E-01 0.500 F 0.407 -0.335 o 691 1.57 Yes No
2020TH5 O C K 2021-01-02.11047 1.000E-05 00:35:35.950 1.500E-01 0.500 F -0.347 0.238 -09° 23' 38.30" 1.000E-01 0.500 F 0.101 0.313 20.9 R 0.70 -0.36 o 691 0.79 Yes Yes
2020TH5 O C K 2021-01-02.12222 1.000E-05 00:35:36.460 1.500E-01 0.500 F -0.347 0.221 -09° 23' 35.50" 1.000E-01 0.500 F 0.101 0.178 21.2 R 0.70 -0.06 o 691 0.57 Yes Yes
2020TH5 O C K 2021-01-02.13398 1.000E-05 00:35:36.980 1.500E-01 0.500 F -0.347 0.297 -09° 23' 32.80" 1.000E-01 0.500 F 0.101 -0.076 21.3 R 0.70 0.04 o 691 0.61 Yes Yes
2020TB12 O C K 2021-01-02.14977 1.000E-05 02:04:17.400 1.500E-01 0.500 F 0.054 0.199 -24° 19' 35.10" 1.000E-01 0.500 F 0.284 0.220 20.5 R 0.70 0.24 o 691 0.60 Yes Yes
2020XR O C K 2021-01-02.15432 1.000E-05 00:51:44.490 1.500E-01 0.500 F -0.378 0.060 -05° 49' 57.10" 1.000E-01 0.500 F 0.018 0.227 19.9 R 0.70 0.27 o 691 0.47 Yes Yes
2020TB12 O C K 2021-01-02.15877 1.000E-05 02:04:16.870 1.500E-01 0.500 F 0.054 -0.059 -24° 19' 28.80" 1.000E-01 0.500 F 0.284 0.066 20.0 R 0.70 -0.26 o 691 0.18 Yes Yes
2020XR O C K 2021-01-02.16331 1.000E-05 00:51:48.780 1.500E-01 0.500 F -0.378 0.336 -05° 50' 01.70" 1.000E-01 0.500 F 0.018 0.025 20.5 R 0.70 0.87 o 691 0.68 Yes Yes
2020TB12 O C K 2021-01-02.16776 1.000E-05 02:04:16.360 1.500E-01 0.500 F 0.054 -0.095 -24° 19' 22.30" 1.000E-01 0.500 F 0.284 0.052 20.6 R 0.70 0.34 o 691 0.22 Yes Yes
2020XR O C K 2021-01-02.17230 1.000E-05 00:51:53.050 1.500E-01 0.500 F -0.378 0.268 -05° 50' 06.30" 1.000E-01 0.500 F 0.018 -0.185 20.4 R 0.70 0.77 o 691 0.65 Yes Yes
2020RO6 O C K 2021-01-02.18260 1.000E-05 01:27:54.230 1.500E-01 0.500 F -0.246 0.115 -07° 56' 25.00" 1.000E-01 0.500 F 0.089 0.025 18.5 R 0.70 -0.35 o 691 0.24 Yes Yes
2010XD25 O C K 2021-01-02.18681 1.000E-05 01:27:02.430 1.500E-01 0.500 F -0.215 0.328 +06° 32' 08.20" 1.000E-01 0.500 F 0.314 -0.104 20.7 R 0.70 0.14 o 691 0.69 Yes Yes
2020RO6 O C K 2021-01-02.19810 1.000E-05 01:28:04.700 1.500E-01 0.500 F -0.339 0.372 -07° 55' 27.10" 1.000E-01 0.500 F 0.073 -0.087 18.6 R 0.70 -0.25 o 691 0.77 Yes Yes
2010XD25 O C K 2021-01-02.20231 1.000E-05 01:27:04.910 1.500E-01 0.500 F -0.246 -0.026 +06° 33' 55.70" 1.000E-01 0.500 F 0.302 -0.134 20.9 R 0.70 0.34 o 691 0.28 Yes Yes
2020RO6 O C K 2021-01-02.21350 1.000E-05 01:28:15.140 1.500E-01 0.500 F -0.339 0.204 -07° 54' 28.90" 1.000E-01 0.500 F 0.073 0.253 18.7 R 0.70 -0.15 o 691 0.65 Yes Yes
2010XD25 O C K 2021-01-02.21771 1.000E-05 01:27:07.420 1.500E-01 0.500 F -0.141 0.054 +06° 35' 42.30" 1.000E-01 0.500 F 0.352 -0.344 20.3 R 0.70 -0.26 o 691 0.70 Yes Yes
2016JU33 O C 2021-01-02.23578 1.000E-05 01:38:53.290 1.500E-01 0.500 F -0.334 -0.096 +17° 39' 49.90" 1.000E-01 0.500 F 0.399 0.198 19.9 V 0.70 -0.42 o 691 0.44 Yes Yes
2020QQ6 O C K 2021-01-02.24112 1.000E-05 02:19:45.390 1.500E-01 0.500 F -0.321 0.045 +16° 01' 10.90" 1.000E-01 0.500 F 0.394 -0.097 20.8 R 0.70 0.33 o 691 0.21 Yes Yes
2016JU33 O C 2021-01-02.25408 1.000E-05 01:38:51.070 1.500E-01 0.500 F -0.334 -0.470 +17° 39' 21.30" 1.000E-01 0.500 F 0.399 -0.306 20.0 V 0.70 -0.32 o 691 1.13 Yes Yes
2020QQ6 O C K 2021-01-02.25673 1.000E-05 02:19:48.240 1.500E-01 0.500 F -0.321 -0.389 +16° 01' 19.10" 1.000E-01 0.500 F 0.394 0.066 20.9 R 0.70 0.43 o 691 0.79 Yes Yes
2016JU33 O C 2021-01-02.27099 1.000E-05 01:38:49.090 1.500E-01 0.500 F -0.334 -0.093 +17° 38' 55.60" 1.000E-01 0.500 F 0.399 0.017 20.2 V 0.70 -0.12 o 691 0.19 Yes Yes
2020QQ6 O C K 2021-01-02.27230 1.000E-05 02:19:51.140 1.500E-01 0.500 F -0.321 -0.092 +16° 01' 27.50" 1.000E-01 0.500 F 0.394 0.473 21.0 R 0.70 0.53 o 691 0.97 Yes Yes
2020PD1 O C K 2021-01-02.28517 1.000E-05 03:43:44.140 1.500E-01 0.500 F -0.234 -0.428 -14° 11' 28.20" 1.000E-01 0.500 F 0.059 -0.283 20.4 R 0.70 -0.08 o 691 1.03 Yes Yes
2020PD1 O C K 2021-01-02.29829 1.000E-05 03:43:45.270 1.500E-01 0.500 F -0.234 0.215 -14° 11' 14.50" 1.000E-01 0.500 F 0.059 0.075 20.3 R 0.70 -0.18 o 691 0.46 Yes Yes
2012UK171 O C K 2021-01-02.30617 1.000E-05 03:25:03.520 1.500E-01 0.500 F -0.133 0.800 +01° 51' 38.90" 1.000E-01 0.500 F 0.257 0.266 18.9 R 0.70 -0.06 o 691 1.71 Yes Yes
2020PD1 O C K 2021-01-02.31143 1.000E-05 03:43:46.380 1.500E-01 0.500 F -0.234 0.495 -14° 11' 00.90" 1.000E-01 0.500 F 0.059 0.298 20.5 R 0.70 0.02 o 691 1.16 Yes Yes
2012UK171 O C K 2021-01-02.31935 1.000E-05 03:24:51.820 1.500E-01 0.500 F -0.204 0.664 +01° 50' 45.10" 1.000E-01 0.500 F 0.309 0.121 o 691 1.37 Yes No
2011WL2 O C K 2021-01-02.32716 1.000E-05 05:14:32.760 1.500E-01 0.500 F -0.157 -0.081 -17° 23' 59.30" 1.000E-01 0.500 F -0.188 0.761 20.1 R 0.70 -0.51 o 691 1.54 Yes Yes
2020WZ1 O C K 2021-01-02.33896 1.000E-05 05:09:30.400 1.500E-01 0.500 F -0.167 0.326 -16° 44' 31.00" 1.000E-01 0.500 F 0.025 0.007 20.2 R 0.70 0.15 o 691 0.66 Yes Yes
2011WL2 O C K 2021-01-02.34626 1.000E-05 05:14:30.650 1.500E-01 0.500 F -0.157 -0.181 -17° 23' 46.00" 1.000E-01 0.500 F -0.188 0.252 20.4 R 0.70 -0.21 o 691 0.62 Yes Yes
2020WZ1 O C K 2021-01-02.35806 1.000E-05 05:09:24.700 1.500E-01 0.500 F -0.167 0.036 -16° 45' 39.90" 1.000E-01 0.500 F 0.025 -0.309 20.1 R 0.70 0.05 o 691 0.63 Yes Yes
2011WL2 O C K 2021-01-02.36536 1.000E-05 05:14:28.590 1.500E-01 0.500 F -0.157 0.266 -17° 23' 32.30" 1.000E-01 0.500 F -0.188 0.070 20.4 R 0.70 -0.21 o 691 0.55 Yes Yes
2020WH2 O C K 2021-01-02.39411 1.000E-05 08:30:58.900 1.500E-01 0.500 F 0.087 0.397 -09° 57' 25.20" 1.000E-01 0.500 F 0.122 0.179 19.8 R 0.70 0.09 o 691 0.88 Yes Yes
2020YN3 O C K 2021-01-02.40294 1.000E-05 07:45:36.320 1.500E-01 0.500 F -0.077 0.219 +24° 02' 59.70" 1.000E-01 0.500 F 0.246 0.129 19.4 R 0.70 0.27 o 691 0.52 Yes Yes
2020WH2 O C K 2021-01-02.41056 1.000E-05 08:30:55.460 1.500E-01 0.500 F 0.087 0.032 -09° 58' 15.10" 1.000E-01 0.500 F 0.122 -0.096 20.4 R 0.70 0.69 o 691 0.20 Yes Yes
2020YN3 O C K 2021-01-02.41938 1.000E-05 07:45:27.900 1.500E-01 0.500 F -0.077 0.168 +24° 02' 44.60" 1.000E-01 0.500 F 0.246 -0.116 19.6 R 0.70 0.48 o 691 0.41 Yes Yes
2020AD3 O C K 2021-01-02.44760 1.000E-05 11:50:09.670 1.500E-01 0.500 F 0.226 -0.303 -04° 34' 46.40" 1.000E-01 0.500 F 0.295 -0.349 o 691 0.93 Yes No
2020AD3 O C K 2021-01-02.46505 1.000E-05 11:50:02.810 1.500E-01 0.500 F 0.226 0.396 -04° 34' 16.20" 1.000E-01 0.500 F 0.295 0.355 20.7 R 0.70 0.15 o 691 1.07 Yes Yes
2020AD3 O C K 2021-01-02.48247 1.000E-05 11:49:55.890 1.500E-01 0.500 F 0.226 0.179 -04° 33' 47.00" 1.000E-01 0.500 F 0.295 0.064 20.7 R 0.70 0.15 o 691 0.39 Yes Yes
2017BO31 O C K 2021-01-02.50799 1.000E-05 14:21:04.000 1.500E-01 0.500 F 0.366 -0.313 +02° 58' 48.30" 1.000E-01 0.500 F 0.232 0.196 20.3 R 0.70 0.20 o 691 0.85 Yes Yes
2008GQ3 O C K 2021-01-02.51663 1.000E-05 14:24:00.180 1.500E-01 0.500 F 0.105 -0.200 +19° 22' 39.40" 1.000E-01 0.500 F 0.353 0.052 20.0 R 0.70 0.23 o 691 0.43 Yes Yes
2017BO31 O C K 2021-01-02.52515 1.000E-05 14:21:00.240 1.500E-01 0.500 F 0.366 0.055 +02° 59' 11.50" 1.000E-01 0.500 F 0.232 0.129 20.0 R 0.70 -0.10 o 691 0.29 Yes Yes
2008GQ3 O C K 2021-01-02.53381 1.000E-05 14:24:02.420 1.500E-01 0.500 F 0.105 -0.424 +19° 21' 45.00" 1.000E-01 0.500 F 0.353 0.283 20.3 R 0.70 0.53 o 691 1.06 Yes Yes
2017BO31 O C K 2021-01-02.54236 1.000E-05 14:20:56.420 1.500E-01 0.500 F 0.366 -0.198 +02° 59' 34.20" 1.000E-01 0.500 F 0.232 -0.488 20.2 R 0.70 0.10 o 691 1.10 Yes Yes
2008GQ3 O C K 2021-01-02.55105 1.000E-05 14:24:04.700 1.500E-01 0.500 F 0.105 -0.107 +19° 20' 49.40" 1.000E-01 0.500 F 0.353 -0.452 20.5 R 0.70 0.73 o 691 0.99 Yes Yes
2020TH5 O C K 2021-01-03.11963 1.000E-05 00:36:28.150 1.500E-01 0.500 F -0.348 0.698 -09° 19' 30.60" 1.000E-01 0.500 F 0.101 -0.116 o 691 1.42 Yes No
2020TH5 O C K 2021-01-03.13778 1.000E-05 00:36:28.930 1.500E-01 0.500 F -0.348 0.139 -09° 19' 25.70" 1.000E-01 0.500 F 0.101 0.085 20.9 R 0.70 -0.36 o 691 0.33 Yes Yes
2020TH5 O C K 2021-01-03.15594 1.000E-05 00:36:29.750 1.500E-01 0.500 F -0.348 0.025 -09° 19' 21.00" 1.000E-01 0.500 F 0.101 0.047 20.9 R 0.70 -0.36 o 691 0.11 Yes Yes
2012XE133 O C K 2021-01-03.17483 1.000E-05 00:34:55.960 1.500E-01 0.500 F -0.218 -0.205 +06° 51' 10.50" 1.000E-01 0.500 F 0.344 -0.241 19.3 R 0.70 -0.17 o 691 0.65 Yes Yes
2016JU33 O C K 2021-01-03.17856 1.000E-05 01:37:08.830 1.500E-01 0.500 F -0.251 -0.242 +17° 16' 19.20" 1.000E-01 0.500 F 0.362 -0.166 20.3 R 0.70 0.38 o 691 0.59 Yes Yes
2012XE133 O C K 2021-01-03.18204 1.000E-05 00:34:51.860 1.500E-01 0.500 F -0.218 -0.214 +06° 49' 47.40" 1.000E-01 0.500 F 0.344 0.083 20.7 R 0.70 1.23 o 691 0.47 Yes Yes
2016JU33 O C K 2021-01-03.18577 1.000E-05 01:37:07.960 1.500E-01 0.500 F -0.251 -0.174 +17° 16' 08.30" 1.000E-01 0.500 F 0.362 0.008 20.3 R 0.70 0.38 o 691 0.35 Yes Yes
2012XE133 O C K 2021-01-03.18926 1.000E-05 00:34:47.790 1.500E-01 0.500 F -0.218 -0.006 +06° 48' 23.90" 1.000E-01 0.500 F 0.344 0.048 19.2 R 0.70 -0.27 o 691 0.10 Yes Yes
2016JU33 O C K 2021-01-03.19298 1.000E-05 01:37:07.060 1.500E-01 0.500 F -0.251 -0.571 +17° 15' 57.60" 1.000E-01 0.500 F 0.362 0.398 19.8 R 0.70 -0.12 o 691 1.40 Yes Yes
2020RO6 O C K 2021-01-03.19965 1.000E-05 01:40:30.620 1.500E-01 0.500 F -0.215 0.135 -06° 50' 29.60" 1.000E-01 0.500 F 0.244 0.069 18.7 R 0.70 0.01 o 691 0.31 Yes Yes
2012UK171 O C K 2021-01-03.20338 1.000E-05 03:12:49.530 1.500E-01 0.500 F -0.234 0.271 +00° 52' 08.00" 1.000E-01 0.500 F 0.305 -0.186 19.4 R 0.70 0.30 o 691 0.66 Yes Yes
2009HD82 O C K 2021-01-03.20664 1.000E-05 03:33:12.360 1.500E-01 0.500 F -0.153 0.097 -03° 55' 13.90" 1.000E-01 0.500 F 0.265 0.145 20.5 R 0.70 -0.23 o 691 0.35 Yes Yes
2020RO6 O C K 2021-01-03.21298 1.000E-05 01:40:40.440 1.500E-01 0.500 F -0.215 0.251 -06° 49' 34.50" 1.000E-01 0.500 F 0.244 -0.293 18.6 R 0.70 -0.09 o 691 0.78 Yes Yes
2012UK171 O C K 2021-01-03.21670 1.000E-05 03:12:37.800 1.500E-01 0.500 F -0.230 0.656 +00° 51' 15.70" 1.000E-01 0.500 F 0.298 -0.264 19.2 R 0.70 0.10 o 691 1.43 Yes Yes
2009HD82 O C K 2021-01-03.21997 1.000E-05 03:33:14.730 1.500E-01 0.500 F -0.153 -0.411 -03° 54' 36.60" 1.000E-01 0.500 F 0.265 0.436 21.0 R 0.70 0.26 o 691 1.21 Yes Yes
2020RO6 O C K 2021-01-03.22631 1.000E-05 01:40:50.280 1.500E-01 0.500 F -0.215 -0.067 -06° 48' 38.70" 1.000E-01 0.500 F 0.244 -0.102 18.5 R 0.70 -0.19 o 691 0.24 Yes Yes
2012UK171 O C K 2021-01-03.23004 1.000E-05 03:12:26.040 1.500E-01 0.500 F -0.230 0.295 +00° 50' 23.40" 1.000E-01 0.500 F 0.298 -0.284 18.6 R 0.70 -0.50 o 691 0.83 Yes Yes
2009HD82 O C K 2021-01-03.23331 1.000E-05 03:33:17.200 1.500E-01 0.500 F -0.153 0.522 -03° 53' 59.90" 1.000E-01 0.500 F 0.265 0.114 20.2 R 0.70 -0.54 o 691 1.08 Yes Yes
2020QQ6 O C K 2021-01-03.24443 1.000E-05 02:22:54.910 1.500E-01 0.500 F -0.247 -0.244 +16° 10' 02.70" 1.000E-01 0.500 F 0.344 -0.315 21.2 R 0.70 0.71 o 691 0.80 Yes Yes
2020PD1 O C K 2021-01-03.25483 1.000E-05 03:45:08.090 1.500E-01 0.500 F -0.234 0.363 -13° 55' 07.50" 1.000E-01 0.500 F 0.059 0.025 20.4 R 0.70 -0.12 o 691 0.73 Yes Yes
2020QQ6 O C K 2021-01-03.26972 1.000E-05 02:22:59.610 1.500E-01 0.500 F -0.247 -0.064 +16° 10' 15.80" 1.000E-01 0.500 F 0.344 -0.158 21.0 R 0.70 0.51 o 691 0.34 Yes Yes
2020PD1 O C K 2021-01-03.28008 1.000E-05 03:45:10.190 1.500E-01 0.500 F -0.234 0.468 -13° 54' 40.90" 1.000E-01 0.500 F 0.059 0.782 20.4 R 0.70 -0.12 o 691 1.83 Yes Yes
2020QQ6 O C K 2021-01-03.29476 1.000E-05 02:23:04.270 1.500E-01 0.500 F -0.247 -0.059 +16° 10' 28.60" 1.000E-01 0.500 F 0.344 -0.115 21.4 R 0.70 0.91 o 691 0.26 Yes Yes
2020PD1 O C K 2021-01-03.30513 1.000E-05 03:45:12.270 1.500E-01 0.500 F -0.234 0.370 -13° 54' 15.80" 1.000E-01 0.500 F 0.059 0.188 20.2 R 0.70 -0.32 o 691 0.83 Yes Yes
2011WL2 O C K 2021-01-03.32329 1.000E-05 05:12:51.570 1.500E-01 0.500 F -0.162 0.187 -17° 11' 56.90" 1.000E-01 0.500 F -0.118 0.961 20.4 R 0.70 -0.24 o 691 1.96 Yes Yes
2020TT7 O C 2021-01-03.33183 1.000E-05 06:14:39.910 1.500E-01 0.500 F -0.277 0.038 -07° 05' 21.70" 1.000E-01 0.500 F 0.088 -0.017 20.2 V 0.70 0.06 o 691 0.08 Yes Yes
2001YV3 O C H 2021-01-03.33720 1.000E-05 06:28:11.980 1.500E-01 0.500 F -0.012 -0.002 +20° 50' 21.20" 1.000E-01 0.500 F 0.252 0.094 19.0 R 0.70 0.89 o 691 0.19 Yes Yes
2011WL2 O C K 2021-01-03.33966 1.000E-05 05:12:49.830 1.500E-01 0.500 F -0.162 -0.044 -17° 11' 45.10" 1.000E-01 0.500 F -0.118 0.313 20.6 R 0.70 -0.04 o 691 0.63 Yes Yes
2020TT7 O C 2021-01-03.34988 1.000E-05 06:14:41.150 1.500E-01 0.500 F -0.277 0.037 -07° 04' 45.20" 1.000E-01 0.500 F 0.088 0.072 20.4 V 0.70 0.26 o 691 0.16 Yes Yes
2001YV3 O C H 2021-01-03.35357 1.000E-05 06:28:09.040 1.500E-01 0.500 F -0.012 -0.410 +20° 50' 43.90" 1.000E-01 0.500 F 0.252 0.296 18.8 R 0.70 0.69 o 691 1.02 Yes Yes
2011WL2 O C K 2021-01-03.35602 1.000E-05 05:12:48.130 1.500E-01 0.500 F -0.162 0.163 -17° 11' 33.00" 1.000E-01 0.500 F -0.118 -0.078 20.7 R 0.70 0.06 o 691 0.36 Yes Yes
2020TT7 O C 2021-01-03.36789 1.000E-05 06:14:42.430 1.500E-01 0.500 F -0.277 0.462 -07° 04' 08.70" 1.000E-01 0.500 F 0.088 0.164 20.7 V 0.70 0.56 o 691 0.99 Yes Yes
2001YV3 O C H 2021-01-03.36987 1.000E-05 06:28:06.180 1.500E-01 0.500 F -0.012 -0.044 +20° 51' 06.00" 1.000E-01 0.500 F 0.252 0.129 19.2 R 0.70 1.08 o 691 0.28 Yes Yes
2020XU6 O C K 2021-01-03.37359 1.000E-05 07:20:43.030 1.500E-01 0.500 F -0.025 0.110 +07° 01' 38.00" 1.000E-01 0.500 F 0.110 -0.005 19.1 R 0.70 -0.09 o 691 0.22 Yes Yes
2020XU6 O C K 2021-01-03.38710 1.000E-05 07:20:42.970 1.500E-01 0.500 F -0.025 0.051 +07° 01' 28.00" 1.000E-01 0.500 F 0.110 -0.022 19.2 R 0.70 0.01 o 691 0.11 Yes Yes
2020WH2 O C K 2021-01-03.39063 1.000E-05 08:27:40.680 1.500E-01 0.500 F -0.018 -0.041 -10° 46' 23.20" 1.000E-01 0.500 F 0.087 0.015 19.9 R 0.70 0.16 o 691 0.09 Yes Yes
2020XU6 O C K 2021-01-03.40065 1.000E-05 07:20:42.920 1.500E-01 0.500 F -0.025 0.079 +07° 01' 18.00" 1.000E-01 0.500 F 0.110 0.014 19.3 R 0.70 0.11 o 691 0.16 Yes Yes
2020WH2 O C K 2021-01-03.40417 1.000E-05 08:27:37.900 1.500E-01 0.500 F -0.018 -0.154 -10° 47' 02.00" 1.000E-01 0.500 F 0.087 0.108 19.9 R 0.70 0.16 o 691 0.38 Yes Yes
2020YB5 O C K 2021-01-03.42557 1.000E-05 13:34:05.790 1.500E-01 0.500 F 0.143 -0.845 +19° 01' 09.40" 1.000E-01 0.500 F 0.401 -0.137 20.0 R 0.70 0.04 o 691 1.72 Yes Yes
2020YB5 O C K 2021-01-03.44946 1.000E-05 13:34:05.060 1.500E-01 0.500 F 0.143 -2.974 +18° 55' 09.20" 1.000E-01 0.500 F 0.401 -0.644 o 691 6.06 No No
2008GQ3 O C K 2021-01-03.46219 1.000E-05 14:26:07.870 1.500E-01 0.500 F 0.155 0.319 +18° 32' 11.30" 1.000E-01 0.500 F 0.340 0.047 20.4 R 0.70 0.63 o 691 0.66 Yes Yes
2008GQ3 O C K 2021-01-03.47040 1.000E-05 14:26:08.910 1.500E-01 0.500 F 0.155 -0.195 +18° 31' 45.00" 1.000E-01 0.500 F 0.340 -0.081 20.5 R 0.70 0.73 o 691 0.43 Yes Yes
2008GQ3 O C K 2021-01-03.47859 1.000E-05 14:26:10.000 1.500E-01 0.500 F 0.155 0.069 +18° 31' 18.70" 1.000E-01 0.500 F 0.340 -0.267 20.1 R 0.70 0.33 o 691 0.59 Yes Yes
2020YA5 O C K 2021-01-03.53474 1.000E-05 08:24:57.440 1.500E-01 0.500 F 0.096 -0.107 +26° 55' 03.20" 1.000E-01 0.500 F 0.275 -0.182 18.8 R 0.70 0.04 o 691 0.43 Yes Yes
2020YA5 O C K 2021-01-03.54177 1.000E-05 08:24:54.770 1.500E-01 0.500 F 0.096 -0.125 +26° 54' 17.50" 1.000E-01 0.500 F 0.275 -0.016 18.9 R 0.70 0.13 o 691 0.25 Yes Yes
2020YA5 O C K 2021-01-03.54880 1.000E-05 08:24:52.140 1.500E-01 0.500 F 0.096 0.095 +26° 53' 31.60" 1.000E-01 0.500 F 0.275 -0.058 18.8 R 0.70 0.03 o 691 0.22 Yes Yes
2014HQ124 O C K 2021-01-04.06695 1.000E-05 21:32:18.000 1.500E-01 0.500 F -0.124 -0.467 -07° 41' 05.70" 1.000E-01 0.500 F 0.396 -0.214 20.1 R 0.70 -0.13 o 691 1.05 Yes Yes
2014HQ124 O C K 2021-01-04.07298 1.000E-05 21:32:19.850 1.500E-01 0.500 F -0.124 -0.564 -07° 41' 14.30" 1.000E-01 0.500 F 0.396 -0.269 20.1 R 0.70 -0.13 o 691 1.28 Yes Yes
2014HQ124 O C K 2021-01-04.07900 1.000E-05 21:32:21.720 1.500E-01 0.500 F -0.124 -0.332 -07° 41' 22.30" 1.000E-01 0.500 F 0.396 0.265 20.6 R 0.70 0.37 o 691 0.85 Yes Yes
2009KK8 O C K 2021-01-04.08736 1.000E-05 01:20:07.040 1.500E-01 0.500 F -0.236 -0.004 +05° 30' 04.30" 1.000E-01 0.500 F 0.309 -0.157 21.6 R 0.70 -0.02 o 691 0.31 Yes Yes
2009KK8 O C K 2021-01-04.09793 1.000E-05 01:20:08.300 1.500E-01 0.500 F -0.236 0.214 +05° 30' 13.20" 1.000E-01 0.500 F 0.309 -0.200 22.2 R 0.70 0.58 o 691 0.59 Yes Yes
2009KK8 O C K 2021-01-04.10848 1.000E-05 01:20:09.540 1.500E-01 0.500 F -0.236 0.167 +05° 30' 22.30" 1.000E-01 0.500 F 0.309 -0.023 21.9 R 0.70 0.28 o 691 0.34 Yes Yes
2020XR O C K 2021-01-04.12195 1.000E-05 01:07:37.390 1.500E-01 0.500 F -0.194 -0.097 -06° 05' 06.20" 1.000E-01 0.500 F 0.266 0.363 19.7 R 0.70 0.09 o 691 0.75 Yes Yes
2012XE133 O C K 2021-01-04.12517 1.000E-05 00:27:18.050 1.500E-01 0.500 F -0.168 0.045 +04° 02' 15.40" 1.000E-01 0.500 F 0.284 -0.590 19.2 R 0.70 -0.58 o 691 1.20 Yes Yes
2020TB12 O C H 2021-01-04.13010 1.000E-05 02:03:09.410 1.500E-01 0.500 F 0.054 0.122 -23° 55' 05.40" 1.000E-01 0.500 F 0.284 -0.126 20.9 R 0.70 0.71 o 691 0.35 Yes Yes
2020XR O C K 2021-01-04.13173 1.000E-05 01:07:42.030 1.500E-01 0.500 F -0.194 -0.292 -06° 05' 10.60" 1.000E-01 0.500 F 0.266 0.070 19.4 R 0.70 -0.21 o 691 0.60 Yes Yes
2012XE133 O C K 2021-01-04.13495 1.000E-05 00:27:13.220 1.500E-01 0.500 F -0.168 0.476 +04° 00' 38.10" 1.000E-01 0.500 F 0.284 -0.919 20.0 R 0.70 0.22 o 691 2.10 Yes Yes
2020TB12 O C H 2021-01-04.13988 1.000E-05 02:03:08.820 1.500E-01 0.500 F 0.054 -0.045 -23° 54' 57.30" 1.000E-01 0.500 F 0.284 -0.113 20.2 R 0.70 0.01 o 691 0.24 Yes Yes
2020XR O C K 2021-01-04.14150 1.000E-05 01:07:46.680 1.500E-01 0.500 F -0.194 -0.300 -06° 05' 14.80" 1.000E-01 0.500 F 0.266 -0.040 19.6 R 0.70 -0.01 o 691 0.61 Yes Yes
2020TB12 O C H 2021-01-04.14963 1.000E-05 02:03:08.280 1.500E-01 0.500 F 0.054 0.412 -23° 54' 49.30" 1.000E-01 0.500 F 0.284 -0.263 19.6 R 0.70 -0.59 o 691 0.98 Yes Yes
2020XB7 O C K 2021-01-04.15991 1.000E-05 02:11:50.000 1.500E-01 0.500 F -0.263 -0.017 -18° 42' 23.20" 1.000E-01 0.500 F 0.137 -0.097 21.4 R 0.70 -0.08 o 691 0.20 Yes Yes
2020XB7 O C K 2021-01-04.17103 1.000E-05 02:11:48.030 1.500E-01 0.500 F -0.263 0.413 -18° 42' 33.30" 1.000E-01 0.500 F 0.137 0.459 o 691 1.27 Yes No

[1-200] [201-400] [401-600] [601-800] [801-1000] [1001-1200] [1201-1400] [1401-1600] [1601-1800] [1801-2000] [2001-2200] [2201-2400] [2401-2600] [2601-2800] [2801-3000] [3001-3200] [3201-3400] [3401-3600] [3601-3800] [3801-4000] [4001-4200] [4201-4400] [4401-4600] [4601-4800] [4801-5000] [5001-5200] [5201-5400] [5401-5600] [5601-5800] [5801-6000] [6001-6200] [6201-6400] [6401-6600] [6601-6800] [6801-7000] [7001-7200] [7201-7400] [7401-7600] [7601-7800] [7801-8000] [8001-8200] [8201-8400] [8401-8600] [8601-8800] [8801-9000] [9001-9200] [9201-9400] [9401-9600] [9601-9800] [9801-10000] [10001-10200] [10201-10400] [10401-10600] [10601-10800] [10801-11000] [11001-11200] [11201-11400] [11401-11600] [11601-11800] [11801-12000] [12001-12200] [12201-12400] [12401-12600] [12601-12800] [12801-13000] [13001-13200] [13201-13400] [13401-13600] [13601-13800] [13801-14000] [14001-14200] [14201-14400] [14401-14600] [14601-14800] [14801-15000] [15001-15200] [15201-15400] [15401-15600] [15601-15800] [15801-16000] [16001-16200] [16201-16400] [16401-16600] [16601-16800] [16801-17000] [17001-17200] [17201-17400] [17401-17600] [17601-17800] [17801-18000] [18001-18200] [18201-18400] [18401-18600] [18601-18800] [18801-19000] [19001-19200] [19201-19400] [19401-19600] [19601-19800] [19801-20000] [20001-20200] [20201-20400] [20401-20600] [20601-20800] [20801-21000] [21001-21200] [21201-21400] [21401-21600] [21601-21800] [21801-22000] [22001-22200] [22201-22400] [22401-22600] [22601-22800] [22801-23000] [23001-23200] [23201-23400] [23401-23600] [23601-23800] [23801-24000] [24001-24200] [24201-24400] [24401-24600] [24601-24800] [24801-25000] [25001-25200] [25201-25400] [25401-25600] [25601-25800] [25801-26000] [26001-26200] [26201-26400] [26401-26600] [26601-26800] [26801-27000] [27001-27200] [27201-27400] [27401-27600] [27601-27800] [27801-28000] [28001-28200] [28201-28400] [28401-28600] [28601-28800] [28801-29000] [29001-29200] [29201-29400] [29401-29600] [29601-29800] [29801-30000] [30001-30200] [30201-30400] [30401-30600] [30601-30800] [30801-31000] [31001-31200] [31201-31400] [31401-31600] [31601-31800] [31801-32000] [32001-32200] [32201-32400] [32401-32600] [32601-32800] [32801-33000] [33001-33200] [33201-33400] [33401-33600] [33601-33800] [33801-34000] [34001-34200] [34201-34400] [34401-34600] [34601-34800] [34801-35000] [35001-35200] [35201-35400] [35401-35600] [35601-35800] [35801-36000] [36001-36200] [36201-36400] [36401-36600] [36601-36800] [36801-37000] [37001-37200] [37201-37400] [37401-37600] [37601-37800] [37801-38000] [38001-38200] [38201-38400] [38401-38600] [38601-38800] [38801-39000] [39001-39200] [39201-39400] [39401-39600] [39601-39800] [39801-40000] [40001-40200] [40201-40400] [40401-40600] [40601-40800] [40801-41000] [41001-41200] [41201-41400] [41401-41600] [41601-41800] [41801-42000] [42001-42200] [42201-42400] [42401-42600] [42601-42800] [42801-43000] [43001-43200] [43201-43400] [43401-43600] [43601-43800] [43801-44000] [44001-44200] [44201-44400] [44401-44600] [44601-44800] [44801-45000] [45001-45200] [45201-45400] [45401-45600] [45601-45800] [45801-46000] [46001-46200] [46201-46400] [46401-46600] [46601-46800] [46801-47000] [47001-47200] [47201-47400] [47401-47600] [47601-47800] [47801-48000] [48001-48200] [48201-48400] [48401-48600] [48601-48800] [48801-49000] [49001-49200] [49201-49400] [49401-49600] [49601-49800] [49801-50000] [50001-50200] [50201-50388]